Terminal Aerodrome Forecast
Issued by NWS

Home | Current Version | Previous Version | Text Only | Print | Product List | Glossary On
Versions: 1 2 3 4 5 6 7 8 9 10 11 12 13 14
000
FTUS43 KFGF 272300
TAFBJI
TAF
KBJI 272324Z 2800/2824 35009KT P6SM SCT020 OVC050
     FM280900 28003KT P6SM BKN050
     FM281200 31007KT P6SM SCT250=

USA.gov is the U.S. government's official web portal to all federal, state and local government web resources and services.